Latest Weather Observations for Cato Island

IDQ60801

Issued at 8:35 pm EST Friday 18 April 2014 (issued every 30 minutes, with the page automatically refreshed every 10 minutes)

About weather observations | Map of weather stations | Latest weather observations for QLD | Other Formats
Station Details ID: 200601 Name: CATO ISLAND Lat: -23.25 Lon: 155.54 Height: 6.3 m
Data from the previous 72 hours. | See also: Recent months for locations in Queensland
Date/Time
EST
Temp
°C
App
Temp
°C
Dew
Point
Rel
Hum
%
Delta-T
°C
Wind Press
QNH
hPa
Press
MSL
hPa
Rain
since 9 am
mm
Dir
 
Spd
km/h
Gust
km/h
Spd
kts
Gust
kts
18/08:30pm 24.0 - - - - SE 15 20 8 11 1016.5 - -
18/08:00pm 24.2 - - - - SE 17 20 9 11 1016.3 1016.3 -
18/07:30pm 24.1 - - - - SE 19 24 10 13 1016.1 - -
18/07:00pm 24.0 - - - - SSE 17 20 9 11 1015.6 1015.6 -
18/06:30pm 24.1 - - - - SSE 19 24 10 13 1015.3 - -
18/06:00pm 24.1 - - - - SSE 17 20 9 11 1015.0 1015.0 -
18/05:30pm 24.1 - - - - S 15 19 8 10 1014.8 - -
18/05:00pm 24.3 - - - - SSE 15 20 8 11 1014.6 1014.6 -
18/04:30pm 24.4 - - - - S 17 20 9 11 1014.3 - -
18/04:00pm 24.5 - - - - S 17 20 9 11 1014.0 1014.1 -
18/03:30pm 24.7 - - - - S 17 22 9 12 1013.8 - -
18/03:00pm 24.8 - - - - S 17 20 9 11 1013.7 1013.7 -
18/02:30pm 24.9 - - - - S 17 20 9 11 1013.7 - -
18/02:00pm 24.9 - - - - S 17 20 9 11 1013.8 1013.8 -
18/01:30pm 25.2 - - - - S 17 20 9 11 1014.0 - -
18/01:00pm 24.9 - - - - S 17 20 9 11 1014.1 1014.1 -
18/12:30pm 25.3 - - - - S 15 20 8 11 1014.5 - -
18/12:00pm 25.0 - - - - S 17 20 9 11 1014.7 1014.7 -
18/11:30am 25.1 - - - - S 13 17 7 9 1015.2 - -
18/11:00am 25.0 - - - - S 13 19 7 10 1015.6 1015.5 -
18/10:30am 25.0 - - - - S 15 19 8 10 1015.9 - -
18/10:00am 24.8 - - - - S 17 20 9 11 1016.3 1016.3 -
18/09:30am 24.8 - - - - S 15 20 8 11 1016.5 - -
18/09:00am 24.7 - - - - SSE 17 20 9 11 1016.5 1016.5 -
18/08:30am 24.4 - - - - S 15 17 8 9 1016.5 - -
18/08:00am 24.3 - - - - SSE 19 22 10 12 1016.4 1016.4 -
18/07:30am 24.3 - - - - S 19 22 10 12 1016.4 - -
18/07:00am 23.9 - - - - S 19 24 10 13 1016.2 1016.3 -
18/06:30am 23.9 - - - - SSE 19 22 10 12 1015.9 - -
18/06:00am 23.6 - - - - SSE 17 20 9 11 1015.7 1015.7 -
18/05:30am 23.5 - - - - SSE 19 22 10 12 1015.5 - -
18/05:00am 23.5 - - - - SSE 19 24 10 13 1015.4 1015.4 -
18/04:30am 23.5 - - - - SSE 19 22 10 12 1015.3 - -
18/04:00am 23.5 - - - - SSE 19 24 10 13 1015.2 1015.2 -
18/03:30am 23.5 - - - - SSE 17 20 9 11 1015.2 - -
18/03:00am 23.5 - - - - SSE 17 20 9 11 1015.3 1015.2 -
18/02:30am 23.6 - - - - SSE 19 24 10 13 1015.3 - -
18/02:00am 23.7 - - - - SSE 19 24 10 13 1015.5 1015.5 -
18/01:30am 23.7 - - - - SSE 17 24 9 13 1015.7 - -
18/01:00am 23.8 - - - - SSE 19 22 10 12 1015.9 1015.9 -
18/12:30am 23.8 - - - - SSE 20 24 11 13 1016.2 - -
18/12:00am 24.0 - - - - SSE 22 26 12 14 1016.4 1016.4 -
 
Date/Time
EST
Temp
°C
App
Temp
°C
Dew
Point
Rel
Hum
%
Delta-T
°C
Wind Press
QNH
hPa
Press
MSL
hPa
Rain
since 9 am
mm
Dir
 
Spd
km/h
Gust
km/h
Spd
kts
Gust
kts
17/11:30pm 23.9 - - - - SSE 20 28 11 15 1016.5 - -
17/11:00pm 24.1 - - - - SSE 24 30 13 16 1016.6 1016.6 -
17/10:30pm 24.1 - - - - SSE 24 28 13 15 1016.8 - -
17/10:00pm 24.2 - - - - SSE 24 30 13 16 1016.8 1016.8 -
17/09:30pm 24.2 - - - - SSE 24 28 13 15 1016.8 - -
17/09:00pm 24.2 - - - - SSE 28 33 15 18 1016.6 1016.6 -
17/08:30pm 24.4 - - - - SSE 28 32 15 17 1016.5 - -
17/08:00pm 24.5 - - - - SSE 28 35 15 19 1016.4 1016.4 -
17/07:30pm 24.4 - - - - SSE 28 35 15 19 1016.2 - -
17/07:00pm 24.4 - - - - SSE 28 35 15 19 1015.8 1015.9 -
17/06:30pm 24.4 - - - - SSE 30 35 16 19 1015.6 - -
17/06:00pm 24.3 - - - - S 30 35 16 19 1015.3 1015.3 -
17/05:30pm 24.4 - - - - S 30 35 16 19 1015.0 - -
17/05:00pm 24.4 - - - - S 28 33 15 18 1014.8 1014.8 -
17/04:30pm 24.4 - - - - S 26 32 14 17 1014.5 - -
17/04:00pm 24.5 - - - - S 26 32 14 17 1014.3 1014.3 -
17/03:30pm 24.7 - - - - S 28 35 15 19 1014.0 - -
17/03:00pm 24.7 - - - - S 30 35 16 19 1014.0 1014.0 -
17/02:30pm 24.8 - - - - S 30 35 16 19 1013.9 - -
17/02:00pm 25.0 - - - - S 28 35 15 19 1014.1 1014.1 -
17/01:30pm 25.2 - - - - S 30 35 16 19 1014.2 - -
17/01:00pm 24.9 - - - - S 30 35 16 19 1014.5 1014.5 -
17/12:30pm 24.9 - - - - S 26 33 14 18 1014.8 - -
17/12:00pm 25.2 - - - - S 26 32 14 17 1015.2 1015.1 -
17/11:30am 24.9 - - - - S 26 33 14 18 1015.6 - -
17/11:00am 25.0 - - - - S 28 33 15 18 1016.1 1016.1 -
17/10:30am 24.9 - - - - S 26 32 14 17 1016.4 - -
17/10:00am 24.9 - - - - S 26 32 14 17 1016.4 1016.4 -
17/09:30am 24.7 - - - - S 26 32 14 17 1016.5 - -
17/09:00am 24.6 - - - - S 26 32 14 17 1016.5 1016.5 -
17/08:30am 24.5 - - - - S 28 33 15 18 1016.4 - -
17/08:00am 24.5 - - - - S 32 35 17 19 1016.2 1016.2 -
17/07:30am 24.4 - - - - S 32 39 17 21 1015.9 - -
17/07:00am 24.2 - - - - SSE 30 33 16 18 1015.8 1015.8 -
17/06:30am 24.2 - - - - SSE 26 33 14 18 1015.6 - -
17/06:00am 23.8 - - - - S 24 33 13 18 1015.3 1015.3 -
17/05:30am 23.9 - - - - S 26 30 14 16 1015.0 - -
17/05:00am 23.9 - - - - S 28 32 15 17 1014.8 1014.8 -
17/04:30am 24.1 - - - - S 26 33 14 18 1014.5 - -
17/04:00am 23.8 - - - - S 24 32 13 17 1014.4 1014.4 -
17/03:30am 23.8 - - - - S 24 30 13 16 1014.1 - -
17/03:00am 23.9 - - - - S 24 28 13 15 1014.2 1014.2 -
17/02:30am 23.8 - - - - SSE 22 32 12 17 1014.2 - -
17/02:00am 23.9 - - - - S 24 32 13 17 1014.2 1014.2 -
17/01:30am 24.1 - - - - S 30 33 16 18 1014.4 - -
17/01:00am 24.1 - - - - S 28 33 15 18 1014.7 1014.7 -
17/12:30am 24.0 - - - - S 28 32 15 17 1014.8 - -
17/12:00am 24.2 - - - - S 28 35 15 19 1015.0 1015.0 -
 
Date/Time
EST
Temp
°C
App
Temp
°C
Dew
Point
Rel
Hum
%
Delta-T
°C
Wind Press
QNH
hPa
Press
MSL
hPa
Rain
since 9 am
mm
Dir
 
Spd
km/h
Gust
km/h
Spd
kts
Gust
kts
16/11:30pm 24.4 - - - - S 24 30 13 16 1015.1 - -
16/11:00pm 24.3 - - - - S 30 35 16 19 1015.0 1015.0 -
16/10:30pm 24.3 - - - - S 28 33 15 18 1015.1 - -
16/10:00pm 24.3 - - - - S 28 33 15 18 1015.2 1015.2 -
16/09:30pm 24.3 - - - - S 33 39 18 21 1015.0 - -
16/09:00pm 24.4 - - - - S 33 39 18 21 1014.9 1014.9 -
16/08:30pm 24.4 - - - - S 32 39 17 21 1014.8 - -
16/08:00pm 24.5 - - - - S 33 39 18 21 1014.6 1014.6 -
16/07:30pm 24.5 - - - - S 32 35 17 19 1014.4 - -
16/07:00pm 24.5 - - - - S 33 41 18 22 1014.0 1014.0 -
16/06:30pm 24.5 - - - - S 32 35 17 19 1013.8 - -
16/06:00pm 24.3 - - - - S 28 35 15 19 1013.6 1013.6 -
16/05:30pm 24.3 - - - - S 32 37 17 20 1013.3 - -
16/05:00pm 24.4 - - - - S 32 41 17 22 1013.1 1013.2 -
16/04:30pm 24.6 - - - - S 33 41 18 22 1013.0 - -
16/04:00pm 24.7 - - - - S 35 41 19 22 1012.8 1012.8 -
16/03:30pm 24.9 - - - - S 32 41 17 22 1012.8 - -
16/03:00pm 24.7 - - - - S 33 39 18 21 1012.9 1012.9 -
16/02:30pm 24.9 - - - - S 33 43 18 23 1012.9 - -
16/02:00pm 25.1 - - - - S 33 41 18 22 1012.9 1012.9 -
16/01:30pm 25.1 - - - - S 33 39 18 21 1013.0 - -
16/01:00pm 25.1 - - - - S 33 39 18 21 1013.0 1013.0 -
16/12:30pm 24.9 - - - - S 35 46 19 25 1013.2 - -
16/12:00pm 25.2 - - - - S 33 41 18 22 1013.4 1013.4 -
16/11:30am 25.4 - - - - S 33 37 18 20 1013.7 - -
16/11:00am 25.1 - - - - S 32 37 17 20 1014.1 1014.1 -
16/10:30am 25.3 - - - - S 32 35 17 19 1014.4 - -
16/10:00am 24.8 - - - - S 30 35 16 19 1014.6 1014.6 -
16/09:30am 24.6 - - - - S 33 39 18 21 1014.6 - -
16/09:00am 25.0 - - - - S 35 44 19 24 1014.4 1014.4 -
16/08:30am 24.6 - - - - S 39 44 21 24 1014.3 - -
16/08:00am 24.5 - - - - S 33 39 18 21 1014.1 1014.1 -
16/07:30am 24.5 - - - - S 35 41 19 22 1014.0 - -
16/07:00am 24.4 - - - - S 35 44 19 24 1013.8 1013.8 -
16/06:30am 24.4 - - - - S 35 43 19 23 1013.6 - -
16/06:00am 24.1 - - - - S 35 43 19 23 1013.4 1013.4 -
16/05:30am 24.1 - - - - S 37 43 20 23 1013.0 - -
16/05:00am 24.1 - - - - S 41 46 22 25 1012.7 1012.7 -
16/04:30am 24.1 - - - - S 41 46 22 25 1012.3 - -
16/04:00am 24.0 - - - - S 43 48 23 26 1012.2 1012.2 -
16/03:30am 24.1 - - - - S 41 48 22 26 1012.0 - -
16/03:00am 24.2 - - - - S 37 44 20 24 1012.2 1012.2 -
16/02:30am 24.3 - - - - S 37 46 20 25 1012.1 - -
16/02:00am 24.1 - - - - S 41 50 22 27 1012.1 1012.0 -
16/01:30am 24.2 - - - - S 41 50 22 27 1012.3 - -
16/01:00am 24.2 - - - - S 41 50 22 27 1012.6 1012.6 -
16/12:30am 24.4 - - - - S 41 50 22 27 1012.8 - -
16/12:00am 24.3 - - - - S 39 46 21 25 1013.0 1013.0 -
 
Date/Time
EST
Temp
°C
App
Temp
°C
Dew
Point
Rel
Hum
%
Delta-T
°C
Wind Press
QNH
hPa
Press
MSL
hPa
Rain
since 9 am
mm
Dir
 
Spd
km/h
Gust
km/h
Spd
kts
Gust
kts
15/11:30pm 24.3 - - - - S 39 46 21 25 1012.9 - -
15/11:00pm 24.3 - - - - S 39 44 21 24 1013.0 1013.0 -
15/10:30pm 24.4 - - - - S 41 46 22 25 1012.9 - -
15/10:00pm 24.4 - - - - S 41 50 22 27 1013.0 1013.0 -
15/09:30pm 24.5 - - - - S 44 52 24 28 1012.8 - -
15/09:00pm 24.7 - - - - S 46 54 25 29 1012.6 1012.6 -

Other Formats:

Comma delimited format used in spreadsheet applications
http://www.bom.gov.au/fwo/IDQ60801/IDQ60801.94394.axf

JavaScript Object Notation format (JSON) in row-major order
http://www.bom.gov.au/fwo/IDQ60801/IDQ60801.94394.json